sensor_id;sensor_type;location;lat;lon;timestamp;P1;durP1;ratioP1;P2;durP2;ratioP2
5827;SDS011;42583;50.240;8.444;2023-05-07T00:02:28;3.22;;;2.17;;
5827;SDS011;42583;50.240;8.444;2023-05-07T00:17:29;2.67;;;1.30;;
5827;SDS011;42583;50.240;8.444;2023-05-07T00:32:30;4.35;;;2.00;;
5827;SDS011;42583;50.240;8.444;2023-05-07T00:47:31;3.80;;;1.67;;
5827;SDS011;42583;50.240;8.444;2023-05-07T01:02:31;3.67;;;1.70;;
5827;SDS011;42583;50.240;8.444;2023-05-07T01:17:35;2.47;;;1.30;;
5827;SDS011;42583;50.240;8.444;2023-05-07T01:32:38;3.38;;;1.60;;
5827;SDS011;42583;50.240;8.444;2023-05-07T01:47:43;2.65;;;1.60;;
5827;SDS011;42583;50.240;8.444;2023-05-07T02:02:44;2.97;;;1.50;;
5827;SDS011;42583;50.240;8.444;2023-05-07T02:18:04;4.80;;;1.75;;
5827;SDS011;42583;50.240;8.444;2023-05-07T02:33:09;3.38;;;1.30;;
5827;SDS011;42583;50.240;8.444;2023-05-07T02:48:12;2.58;;;1.30;;
5827;SDS011;42583;50.240;8.444;2023-05-07T03:03:13;3.10;;;1.40;;
5827;SDS011;42583;50.240;8.444;2023-05-07T03:18:15;2.05;;;1.40;;
5827;SDS011;42583;50.240;8.444;2023-05-07T03:33:16;2.17;;;1.30;;
5827;SDS011;42583;50.240;8.444;2023-05-07T03:48:16;2.42;;;1.70;;
5827;SDS011;42583;50.240;8.444;2023-05-07T04:03:17;4.03;;;1.52;;
5827;SDS011;42583;50.240;8.444;2023-05-07T04:18:17;4.20;;;1.67;;
5827;SDS011;42583;50.240;8.444;2023-05-07T04:33:18;3.08;;;1.50;;
5827;SDS011;42583;50.240;8.444;2023-05-07T04:48:19;2.70;;;1.50;;
5827;SDS011;42583;50.240;8.444;2023-05-07T05:03:20;2.42;;;1.70;;
5827;SDS011;42583;50.240;8.444;2023-05-07T05:18:20;2.78;;;1.88;;
5827;SDS011;42583;50.240;8.444;2023-05-07T05:33:22;2.50;;;1.73;;
5827;SDS011;42583;50.240;8.444;2023-05-07T05:48:25;4.90;;;2.00;;
5827;SDS011;42583;50.240;8.444;2023-05-07T06:03:26;3.13;;;1.80;;
5827;SDS011;42583;50.240;8.444;2023-05-07T06:18:27;5.18;;;1.90;;
5827;SDS011;42583;50.240;8.444;2023-05-07T06:33:27;3.10;;;1.70;;
5827;SDS011;42583;50.240;8.444;2023-05-07T06:48:28;4.38;;;1.80;;
5827;SDS011;42583;50.240;8.444;2023-05-07T07:03:28;2.72;;;1.58;;
5827;SDS011;42583;50.240;8.444;2023-05-07T07:18:29;3.28;;;1.63;;
5827;SDS011;42583;50.240;8.444;2023-05-07T07:33:29;3.90;;;1.70;;
5827;SDS011;42583;50.240;8.444;2023-05-07T07:48:30;3.20;;;1.67;;
5827;SDS011;42583;50.240;8.444;2023-05-07T08:03:31;3.00;;;1.80;;
5827;SDS011;42583;50.240;8.444;2023-05-07T08:18:32;2.65;;;1.70;;
5827;SDS011;42583;50.240;8.444;2023-05-07T08:33:33;4.13;;;1.85;;
5827;SDS011;42583;50.240;8.444;2023-05-07T08:48:33;2.97;;;1.83;;
5827;SDS011;42583;50.240;8.444;2023-05-07T09:03:34;3.25;;;2.05;;
5827;SDS011;42583;50.240;8.444;2023-05-07T09:18:35;2.97;;;2.13;;
5827;SDS011;42583;50.240;8.444;2023-05-07T09:33:40;3.63;;;2.10;;
5827;SDS011;42583;50.240;8.444;2023-05-07T09:48:41;2.58;;;1.85;;
5827;SDS011;42583;50.240;8.444;2023-05-07T10:03:43;3.80;;;2.10;;
5827;SDS011;42583;50.240;8.444;2023-05-07T10:18:45;3.50;;;2.20;;
5827;SDS011;42583;50.240;8.444;2023-05-07T10:33:47;5.55;;;2.67;;
5827;SDS011;42583;50.240;8.444;2023-05-07T11:04:14;3.45;;;1.95;;
5827;SDS011;42583;50.240;8.444;2023-05-07T11:19:15;4.95;;;2.42;;
5827;SDS011;42583;50.240;8.444;2023-05-07T11:34:20;4.35;;;2.95;;
5827;SDS011;42583;50.240;8.444;2023-05-07T11:49:25;4.00;;;2.65;;
5827;SDS011;42583;50.240;8.444;2023-05-07T12:04:26;4.47;;;2.87;;
5827;SDS011;42583;50.240;8.444;2023-05-07T12:19:30;9.98;;;3.40;;
5827;SDS011;42583;50.240;8.444;2023-05-07T12:34:31;3.08;;;2.10;;
5827;SDS011;42583;50.240;8.444;2023-05-07T12:49:33;2.97;;;2.15;;
5827;SDS011;42583;50.240;8.444;2023-05-07T13:04:37;3.55;;;2.35;;
5827;SDS011;42583;50.240;8.444;2023-05-07T13:19:38;4.55;;;2.80;;
5827;SDS011;42583;50.240;8.444;2023-05-07T13:34:39;5.47;;;2.40;;
5827;SDS011;42583;50.240;8.444;2023-05-07T13:49:39;4.78;;;2.70;;
5827;SDS011;42583;50.240;8.444;2023-05-07T14:04:40;4.53;;;2.50;;
5827;SDS011;42583;50.240;8.444;2023-05-07T14:19:48;4.65;;;2.80;;
5827;SDS011;42583;50.240;8.444;2023-05-07T14:34:48;5.45;;;2.47;;
5827;SDS011;42583;50.240;8.444;2023-05-07T14:49:49;4.70;;;2.53;;
5827;SDS011;42583;50.240;8.444;2023-05-07T15:04:49;5.97;;;3.90;;
5827;SDS011;42583;50.240;8.444;2023-05-07T15:19:50;3.97;;;2.60;;
5827;SDS011;42583;50.240;8.444;2023-05-07T15:34:51;4.07;;;2.40;;
5827;SDS011;42583;50.240;8.444;2023-05-07T15:49:51;3.38;;;2.40;;
5827;SDS011;42583;50.240;8.444;2023-05-07T16:04:52;5.13;;;2.25;;
5827;SDS011;42583;50.240;8.444;2023-05-07T16:19:52;3.30;;;2.10;;
5827;SDS011;42583;50.240;8.444;2023-05-07T16:34:53;2.60;;;1.90;;
5827;SDS011;42583;50.240;8.444;2023-05-07T16:49:53;3.35;;;2.05;;
5827;SDS011;42583;50.240;8.444;2023-05-07T17:04:54;5.40;;;2.28;;
5827;SDS011;42583;50.240;8.444;2023-05-07T17:19:54;4.93;;;2.47;;
5827;SDS011;42583;50.240;8.444;2023-05-07T17:34:55;6.20;;;2.75;;
5827;SDS011;42583;50.240;8.444;2023-05-07T17:49:56;4.03;;;2.70;;
5827;SDS011;42583;50.240;8.444;2023-05-07T18:04:57;6.13;;;3.15;;
5827;SDS011;42583;50.240;8.444;2023-05-07T18:19:57;9.00;;;4.05;;
5827;SDS011;42583;50.240;8.444;2023-05-07T18:34:58;6.00;;;3.70;;
5827;SDS011;42583;50.240;8.444;2023-05-07T18:49:58;4.57;;;3.10;;
5827;SDS011;42583;50.240;8.444;2023-05-07T19:04:59;4.10;;;3.13;;
5827;SDS011;42583;50.240;8.444;2023-05-07T19:20:00;4.18;;;3.28;;
5827;SDS011;42583;50.240;8.444;2023-05-07T19:35:01;5.65;;;3.70;;
5827;SDS011;42583;50.240;8.444;2023-05-07T19:50:01;7.32;;;4.00;;
5827;SDS011;42583;50.240;8.444;2023-05-07T20:05:02;9.35;;;4.50;;
5827;SDS011;42583;50.240;8.444;2023-05-07T20:20:03;6.78;;;4.13;;
5827;SDS011;42583;50.240;8.444;2023-05-07T20:35:04;8.85;;;4.07;;
5827;SDS011;42583;50.240;8.444;2023-05-07T20:50:05;6.25;;;4.40;;
5827;SDS011;42583;50.240;8.444;2023-05-07T21:05:06;104.15;;;4.50;;
5827;SDS011;42583;50.240;8.444;2023-05-07T21:20:07;9.57;;;2.83;;
5827;SDS011;42583;50.240;8.444;2023-05-07T21:35:08;28.70;;;3.00;;
5827;SDS011;42583;50.240;8.444;2023-05-07T21:50:09;63.03;;;4.47;;
5827;SDS011;42583;50.240;8.444;2023-05-07T22:05:09;9.55;;;6.30;;
5827;SDS011;42583;50.240;8.444;2023-05-07T22:20:10;12.70;;;7.03;;
5827;SDS011;42583;50.240;8.444;2023-05-07T22:35:11;11.23;;;7.13;;
5827;SDS011;42583;50.240;8.444;2023-05-07T22:50:11;9.77;;;6.43;;
5827;SDS011;42583;50.240;8.444;2023-05-07T23:05:12;13.35;;;7.80;;
5827;SDS011;42583;50.240;8.444;2023-05-07T23:20:13;12.32;;;7.43;;
5827;SDS011;42583;50.240;8.444;2023-05-07T23:35:14;14.10;;;8.15;;
5827;SDS011;42583;50.240;8.444;2023-05-07T23:50:15;15.35;;;8.35;;
